TimeCDT,TemperatureF,Dew PointF,Humidity,Sea Level PressureIn,VisibilityMPH,Wind Direction,Wind SpeedMPH,Gust SpeedMPH,PrecipitationIn,Events,Conditions,WindDirDegrees,DateUTC
12:54 AM,66.0,55.0,68,29.91,10.0,WNW,5.8,-,N/A,,Clear,300,2012-09-06 05:54:00
1:54 AM,64.9,54.0,68,29.93,10.0,NNW,4.6,-,N/A,,Clear,330,2012-09-06 06:54:00
2:54 AM,64.0,53.1,67,29.94,10.0,NNW,5.8,-,N/A,,Clear,330,2012-09-06 07:54:00
3:54 AM,62.1,53.1,72,29.95,10.0,NNW,3.5,-,N/A,,Clear,330,2012-09-06 08:54:00
4:54 AM,60.1,53.1,78,29.96,10.0,Calm,Calm,-,N/A,,Clear,0,2012-09-06 09:54:00
5:54 AM,59.0,52.0,78,29.97,10.0,NW,3.5,-,N/A,,Clear,320,2012-09-06 10:54:00
6:54 AM,57.9,52.0,81,30.00,10.0,NW,3.5,-,N/A,,Partly Cloudy,320,2012-09-06 11:54:00
7:54 AM,61.0,53.1,75,30.00,10.0,Calm,Calm,-,N/A,,Clear,0,2012-09-06 12:54:00
8:54 AM,68.0,53.1,59,29.98,10.0,NE,4.6,-,N/A,,Clear,40,2012-09-06 13:54:00
9:54 AM,73.0,48.0,41,29.99,10.0,SE,5.8,-,N/A,,Clear,130,2012-09-06 14:54:00
10:54 AM,75.9,48.0,37,30.01,10.0,ESE,5.8,-,N/A,,Clear,120,2012-09-06 15:54:00
11:54 AM,79.0,45.0,30,29.98,10.0,SSE,6.9,-,N/A,,Clear,150,2012-09-06 16:54:00
12:54 PM,82.0,46.9,29,29.95,10.0,South,6.9,-,N/A,,Clear,180,2012-09-06 17:54:00
1:54 PM,84.0,46.0,26,29.92,10.0,Variable,4.6,-,N/A,,Clear,0,2012-09-06 18:54:00
2:54 PM,84.9,46.0,26,29.90,10.0,SSE,4.6,-,N/A,,Clear,160,2012-09-06 19:54:00
3:54 PM,86.0,46.9,26,29.87,10.0,ESE,8.1,-,N/A,,Clear,120,2012-09-06 20:54:00
4:54 PM,87.1,46.9,25,29.84,10.0,SE,15.0,20.7,N/A,,Clear,130,2012-09-06 21:54:00
5:54 PM,86.0,48.9,28,29.82,10.0,SSE,13.8,-,N/A,,Clear,150,2012-09-06 22:54:00
6:54 PM,82.9,50.0,32,29.82,10.0,SE,8.1,-,N/A,,Partly Cloudy,140,2012-09-06 23:54:00
7:54 PM,81.0,51.1,35,29.81,10.0,East,5.8,-,N/A,,Scattered Clouds,90,2012-09-07 00:54:00
8:54 PM,78.1,52.0,40,29.83,10.0,East,3.5,-,N/A,,Scattered Clouds,90,2012-09-07 01:54:00
9:54 PM,75.9,55.0,48,29.85,10.0,East,6.9,-,N/A,,Overcast,90,2012-09-07 02:54:00
10:54 PM,75.0,55.9,51,29.83,10.0,East,4.6,-,N/A,,Overcast,80,2012-09-07 03:54:00
11:54 PM,73.0,55.0,53,29.83,10.0,ENE,8.1,-,N/A,,Overcast,70,2012-09-07 04:54:00